createdAt,value
2019-02-18T00:01:11.155Z,12.50
2019-02-18T00:02:16.313Z,12.40
2019-02-18T00:03:21.645Z,12.15
2019-02-18T00:04:26.925Z,13.13
2019-02-18T00:05:32.111Z,12.03
2019-02-18T00:06:37.291Z,12.28
2019-02-18T00:07:42.717Z,12.15
2019-02-18T00:08:47.836Z,12.40
2019-02-18T00:09:52.963Z,12.40
2019-02-18T00:10:57.993Z,12.33
2019-02-18T00:12:03.115Z,13.22
2019-02-18T00:13:08.289Z,12.50
2019-02-18T00:14:16.154Z,12.85
2019-02-18T00:15:22.861Z,12.37
2019-02-18T00:16:27.917Z,13.88
2019-02-18T00:17:32.920Z,12.03
2019-02-18T00:18:38.049Z,13.80
2019-02-18T00:19:43.249Z,13.10
2019-02-18T00:20:48.398Z,12.95
2019-02-18T00:21:53.431Z,12.47
2019-02-18T00:23:00.284Z,12.88
2019-02-18T00:24:05.340Z,12.68
2019-02-18T00:25:11.348Z,12.80
2019-02-18T00:26:16.473Z,12.70
2019-02-18T00:27:21.535Z,12.10
2019-02-18T00:28:26.552Z,13.45
2019-02-18T00:29:31.657Z,12.68
2019-02-18T00:30:36.814Z,13.13
2019-02-18T00:31:41.933Z,11.40
2019-02-18T00:32:47.054Z,12.28
2019-02-18T00:33:53.229Z,13.05
2019-02-18T00:34:58.285Z,13.00
2019-02-18T00:36:03.437Z,13.32
2019-02-18T00:37:08.440Z,12.50
2019-02-18T00:38:13.546Z,13.65
2019-02-18T00:39:18.585Z,12.88
2019-02-18T00:40:23.674Z,12.30
2019-02-18T00:41:28.720Z,12.45
2019-02-18T00:42:33.846Z,12.95
2019-02-18T00:43:38.964Z,11.40
2019-02-18T00:44:44.345Z,13.05
2019-02-18T00:45:49.464Z,13.20
2019-02-18T00:46:54.479Z,11.90
2019-02-18T00:47:59.576Z,12.58
2019-02-18T00:49:04.700Z,12.93
2019-02-18T00:50:09.981Z,12.10
2019-02-18T00:51:15.030Z,13.70
2019-02-18T00:52:20.251Z,12.63
2019-02-18T00:53:25.261Z,13.53
2019-02-18T00:54:30.360Z,12.43
2019-02-18T00:55:35.481Z,12.55
2019-02-18T00:56:40.662Z,12.45
2019-02-18T00:57:45.681Z,12.13
2019-02-18T00:58:50.824Z,11.73
2019-02-18T00:59:55.811Z,11.25
2019-02-18T01:01:00.949Z,12.93
2019-02-18T01:02:06.296Z,11.85
2019-02-18T01:03:11.389Z,12.35
2019-02-18T01:04:16.459Z,11.75
2019-02-18T01:05:21.548Z,11.83
2019-02-18T01:06:26.674Z,11.25
2019-02-18T01:07:34.675Z,12.60
2019-02-18T01:08:38.598Z,12.70
2019-02-18T01:09:43.719Z,10.63
2019-02-18T01:10:48.803Z,12.30
2019-02-18T01:11:54.033Z,11.63
2019-02-18T01:12:59.096Z,12.68
2019-02-18T01:14:04.187Z,11.30
2019-02-18T01:15:10.565Z,12.00
2019-02-18T01:16:15.772Z,10.90
2019-02-18T01:17:20.853Z,11.30
2019-02-18T01:18:26.110Z,11.12
2019-02-18T01:19:31.673Z,11.75
2019-02-18T01:20:38.128Z,12.15
2019-02-18T01:21:43.211Z,11.28
2019-02-18T01:22:48.418Z,11.43
2019-02-18T01:23:53.649Z,12.15
2019-02-18T01:24:58.743Z,12.33
2019-02-18T01:26:03.857Z,11.60
2019-02-18T01:27:08.992Z,11.28
2019-02-18T01:28:14.139Z,12.20
2019-02-18T01:29:19.589Z,11.55
2019-02-18T01:30:24.712Z,10.58
2019-02-18T01:31:29.817Z,11.20
2019-02-18T01:32:37.969Z,10.75
2019-02-18T01:33:43.086Z,12.03
2019-02-18T01:34:49.638Z,11.10
2019-02-18T01:35:54.820Z,10.70
2019-02-18T01:36:59.862Z,11.40
2019-02-18T01:38:04.914Z,11.30
2019-02-18T01:39:11.055Z,10.30
2019-02-18T01:40:16.125Z,10.60
2019-02-18T01:41:22.369Z,10.68
2019-02-18T01:42:27.505Z,10.28
2019-02-18T01:43:32.680Z,10.63
2019-02-18T01:44:37.776Z,11.10
2019-02-18T01:45:42.805Z,9.75
2019-02-18T01:46:47.840Z,10.93
2019-02-18T01:47:52.960Z,11.45
2019-02-18T01:48:58.063Z,10.00
2019-02-18T01:50:03.189Z,10.70
2019-02-18T01:51:08.290Z,10.75
2019-02-18T01:52:13.386Z,10.08
2019-02-18T01:53:18.526Z,11.85
2019-02-18T01:54:23.566Z,10.10
2019-02-18T01:55:28.724Z,11.15
2019-02-18T01:56:33.821Z,10.72
2019-02-18T01:57:38.962Z,10.72
2019-02-18T01:58:46.348Z,10.90
2019-02-18T01:59:51.500Z,11.43
2019-02-18T02:00:57.660Z,10.45
2019-02-18T02:02:02.719Z,10.98
2019-02-18T02:03:07.851Z,10.35
2019-02-18T02:04:12.934Z,10.13
2019-02-18T02:05:18.453Z,11.10
2019-02-18T02:06:23.570Z,11.78
2019-02-18T02:07:28.711Z,11.03
2019-02-18T02:08:35.607Z,10.28
2019-02-18T02:09:40.736Z,9.90
2019-02-18T02:10:45.897Z,11.33
2019-02-18T02:11:50.973Z,9.98
2019-02-18T02:13:34.219Z,10.30
2019-02-18T02:14:39.328Z,10.82
2019-02-18T02:15:44.435Z,10.72
2019-02-18T02:16:49.538Z,11.38
2019-02-18T02:17:54.629Z,11.45
2019-02-18T02:18:59.733Z,11.33
2019-02-18T02:20:08.159Z,11.97
2019-02-18T02:21:13.276Z,10.93
2019-02-18T02:22:19.469Z,11.65
2019-02-18T02:23:24.574Z,12.05
2019-02-18T02:24:29.753Z,11.38
2019-02-18T02:25:34.778Z,11.25
2019-02-18T02:26:39.942Z,11.80
2019-02-18T02:27:45.036Z,11.10
2019-02-18T02:28:50.097Z,11.63
2019-02-18T02:29:55.530Z,12.73
2019-02-18T02:31:01.411Z,11.83
2019-02-18T02:32:07.801Z,10.23
2019-02-18T02:33:12.997Z,11.73
2019-02-18T02:34:18.139Z,11.43
2019-02-18T02:35:23.202Z,11.65
2019-02-18T02:36:28.359Z,11.63
2019-02-18T02:37:35.402Z,12.05
2019-02-18T02:38:40.684Z,11.97
2019-02-18T02:39:45.771Z,11.57
2019-02-18T02:40:50.903Z,11.75
2019-02-18T02:41:56.073Z,12.58
2019-02-18T02:43:01.261Z,11.50
2019-02-18T02:44:06.363Z,12.28
2019-02-18T02:45:11.719Z,11.70
2019-02-18T02:46:16.885Z,12.10
2019-02-18T02:47:21.933Z,11.73
2019-02-18T02:48:27.110Z,11.60
2019-02-18T02:49:32.165Z,12.60
2019-02-18T02:50:37.232Z,12.10
2019-02-18T02:51:42.400Z,12.63
2019-02-18T02:52:47.513Z,12.40
2019-02-18T02:53:52.657Z,12.98
2019-02-18T02:54:57.759Z,12.28
2019-02-18T02:56:04.103Z,11.85
2019-02-18T02:57:09.241Z,12.40
2019-02-18T02:58:14.424Z,12.30
2019-02-18T02:59:20.160Z,12.35
2019-02-18T03:00:25.320Z,12.43
2019-02-18T03:01:30.397Z,12.03
2019-02-18T03:02:35.442Z,9.50
2019-02-18T03:03:40.469Z,12.13
2019-02-18T03:04:45.545Z,12.35
2019-02-18T03:05:50.705Z,12.18
2019-02-18T03:06:55.745Z,11.70
2019-02-18T03:08:03.797Z,12.73
2019-02-18T03:09:10.150Z,11.55
2019-02-18T03:10:15.198Z,13.13
2019-02-18T03:11:20.565Z,11.90
2019-02-18T03:12:25.646Z,13.88
2019-02-18T03:13:30.698Z,13.68
2019-02-18T03:14:35.703Z,12.05
2019-02-18T03:15:40.820Z,12.13
2019-02-18T03:16:45.963Z,12.53
2019-02-18T03:17:51.005Z,13.43
2019-02-18T03:18:57.124Z,12.55
2019-02-18T03:20:02.229Z,15.10
2019-02-18T03:21:07.777Z,12.78
2019-02-18T03:22:12.982Z,12.60
2019-02-18T03:23:18.068Z,14.38
2019-02-18T03:24:23.107Z,14.00
2019-02-18T03:25:29.347Z,14.58
2019-02-18T03:26:34.370Z,14.15
2019-02-18T03:27:39.818Z,13.00
2019-02-18T03:29:47.019Z,12.93
2019-02-18T03:30:59.338Z,13.72
2019-02-18T03:32:04.454Z,13.95
2019-02-18T03:33:09.725Z,14.03
2019-02-18T03:34:28.572Z,13.10
2019-02-18T03:35:33.705Z,15.15
2019-02-18T03:36:38.809Z,13.53
2019-02-18T03:37:43.927Z,15.28
2019-02-18T03:38:48.972Z,13.35
2019-02-18T03:39:53.993Z,14.20
2019-02-18T03:41:03.297Z,14.55
2019-02-18T03:42:06.073Z,13.95
2019-02-18T03:43:11.164Z,13.53
2019-02-18T03:44:16.299Z,14.68
2019-02-18T03:45:21.376Z,14.15
2019-02-18T03:46:26.395Z,14.53
2019-02-18T03:47:31.464Z,12.90
2019-02-18T03:48:36.498Z,13.35
2019-02-18T03:49:41.584Z,13.60
2019-02-18T03:50:46.600Z,14.00
2019-02-18T03:51:51.954Z,14.18
2019-02-18T03:52:57.108Z,12.20
2019-02-18T03:54:02.265Z,14.28
2019-02-18T03:55:08.417Z,13.48
2019-02-18T03:56:13.447Z,13.65
2019-02-18T03:57:18.574Z,13.80
2019-02-18T03:58:23.597Z,13.85
2019-02-18T03:59:28.720Z,12.90
2019-02-18T04:00:33.816Z,13.35
2019-02-18T04:01:38.989Z,12.73
2019-02-18T04:02:44.168Z,14.18
2019-02-18T04:03:49.253Z,14.58
2019-02-18T04:04:54.291Z,13.32
2019-02-18T04:05:59.288Z,13.25
2019-02-18T04:07:04.308Z,14.30
2019-02-18T04:08:09.409Z,13.90
2019-02-18T04:09:14.487Z,12.65
2019-02-18T04:10:19.645Z,14.50
2019-02-18T04:11:24.665Z,12.47
2019-02-18T04:12:29.760Z,13.18
2019-02-18T04:13:34.884Z,13.88
2019-02-18T04:14:40.094Z,14.20
2019-02-18T04:15:45.324Z,13.28
2019-02-18T04:16:50.474Z,12.25
2019-02-18T04:17:55.566Z,13.10
2019-02-18T04:19:00.658Z,13.28
2019-02-18T04:20:05.953Z,13.68
2019-02-18T04:21:10.960Z,14.00
2019-02-18T04:22:16.058Z,14.50
2019-02-18T04:23:21.192Z,14.23
2019-02-18T04:24:26.310Z,13.70
2019-02-18T04:25:31.429Z,14.30
2019-02-18T04:26:36.537Z,14.93
2019-02-18T04:27:41.545Z,14.68
2019-02-18T04:28:46.805Z,13.20
2019-02-18T04:29:51.887Z,13.60
2019-02-18T04:30:57.008Z,13.88
2019-02-18T04:32:02.085Z,14.00
2019-02-18T04:33:07.100Z,15.50
2019-02-18T04:34:12.225Z,14.23
2019-02-18T04:35:17.373Z,14.83
2019-02-18T04:36:22.994Z,14.30
2019-02-18T04:37:28.013Z,14.50
2019-02-18T04:38:33.026Z,14.18
2019-02-18T04:39:38.076Z,15.13
2019-02-18T04:40:43.160Z,13.72
2019-02-18T04:41:48.247Z,14.30
2019-02-18T04:42:53.439Z,13.20
2019-02-18T04:43:58.555Z,13.25
2019-02-18T04:45:03.693Z,13.43
2019-02-18T04:46:08.692Z,14.93
2019-02-18T04:47:13.709Z,15.55
2019-02-18T04:48:18.818Z,14.93
2019-02-18T04:49:23.898Z,15.32
2019-02-18T04:50:29.023Z,14.87
2019-02-18T04:51:34.108Z,14.20
2019-02-18T04:52:39.131Z,14.78
2019-02-18T04:53:44.226Z,14.60
2019-02-18T04:54:49.364Z,15.43
2019-02-18T04:55:54.406Z,15.55
2019-02-18T04:57:01.069Z,15.98
2019-02-18T04:58:06.404Z,15.43
2019-02-18T04:59:11.750Z,15.32
2019-02-18T05:00:16.846Z,14.35
2019-02-18T05:01:21.957Z,15.13
2019-02-18T05:02:27.065Z,14.53
2019-02-18T05:03:32.285Z,14.25
2019-02-18T05:04:41.508Z,14.85
2019-02-18T05:05:46.630Z,15.18
2019-02-18T05:06:51.757Z,14.50
2019-02-18T05:07:56.785Z,15.13
2019-02-18T05:09:05.390Z,14.60
2019-02-18T05:10:09.835Z,15.40
2019-02-18T05:11:14.877Z,15.23
2019-02-18T05:12:20.062Z,16.20
2019-02-18T05:13:25.157Z,14.05
2019-02-18T05:14:30.172Z,14.23
2019-02-18T05:15:35.241Z,15.55
2019-02-18T05:16:40.304Z,14.30
2019-02-18T05:17:45.350Z,14.65
2019-02-18T05:18:50.520Z,13.80
2019-02-18T05:19:55.640Z,13.32
2019-02-18T05:21:00.700Z,14.15
2019-02-18T05:22:05.803Z,13.78
2019-02-18T05:23:10.917Z,13.78
2019-02-18T05:24:15.931Z,13.08
2019-02-18T05:25:20.949Z,14.60
2019-02-18T05:26:26.154Z,13.70
2019-02-18T05:27:33.524Z,13.80
2019-02-18T05:28:37.921Z,14.53
2019-02-18T05:29:43.158Z,13.70
2019-02-18T05:30:48.261Z,14.65
2019-02-18T05:31:54.392Z,13.25
2019-02-18T05:32:59.408Z,13.95
2019-02-18T05:34:04.502Z,13.65
2019-02-18T05:35:11.979Z,13.38
2019-02-18T05:36:17.047Z,13.30
2019-02-18T05:37:22.098Z,13.15
2019-02-18T05:38:27.232Z,13.25
2019-02-18T05:39:32.286Z,13.38
2019-02-18T05:40:37.305Z,13.75
2019-02-18T05:41:42.415Z,12.93
2019-02-18T05:42:47.489Z,13.80
2019-02-18T05:43:52.625Z,13.62
2019-02-18T05:44:57.736Z,13.10
2019-02-18T05:46:02.784Z,13.68
2019-02-18T05:47:07.801Z,12.68
2019-02-18T05:48:12.919Z,13.13
2019-02-18T05:49:17.931Z,13.68
2019-02-18T05:50:23.019Z,12.37
2019-02-18T05:51:28.911Z,14.25
2019-02-18T05:52:34.189Z,12.85
2019-02-18T05:53:39.230Z,13.40
2019-02-18T05:54:44.257Z,13.65
2019-02-18T05:55:49.364Z,13.03
2019-02-18T05:56:54.455Z,13.28
2019-02-18T05:57:59.473Z,13.15
2019-02-18T05:59:04.576Z,12.93
2019-02-18T06:00:10.293Z,13.95
2019-02-18T06:01:17.954Z,13.05
2019-02-18T06:02:23.059Z,12.88
2019-02-18T06:03:28.198Z,13.20
2019-02-18T06:04:33.227Z,13.32
2019-02-18T06:05:38.358Z,14.33
2019-02-18T06:06:43.500Z,13.98
2019-02-18T06:07:48.583Z,13.83
2019-02-18T06:08:53.701Z,14.25
2019-02-18T06:09:58.882Z,13.15
2019-02-18T06:11:04.029Z,13.60
2019-02-18T06:12:09.175Z,13.85
2019-02-18T06:13:14.309Z,13.38
2019-02-18T06:14:19.403Z,13.25
2019-02-18T06:15:24.515Z,13.48
2019-02-18T06:16:29.653Z,12.85
2019-02-18T06:17:34.842Z,13.72
2019-02-18T06:18:39.857Z,13.43
2019-02-18T06:19:45.245Z,11.78
2019-02-18T06:20:50.514Z,13.45
2019-02-18T06:21:56.669Z,12.10
2019-02-18T06:23:02.828Z,13.48
2019-02-18T06:24:07.962Z,12.60
2019-02-18T06:25:13.095Z,13.62
2019-02-18T06:26:22.092Z,13.30
2019-02-18T06:27:30.190Z,13.00
2019-02-18T06:28:35.434Z,12.70
2019-02-18T06:29:40.552Z,12.90
2019-02-18T06:30:45.565Z,13.35
2019-02-18T06:31:50.561Z,13.10
2019-02-18T06:33:01.205Z,13.65
2019-02-18T06:34:08.305Z,14.13
2019-02-18T06:35:13.536Z,12.70
2019-02-18T06:36:18.764Z,13.68
2019-02-18T06:37:26.880Z,13.45
2019-02-18T06:38:32.011Z,13.72
2019-02-18T06:39:41.325Z,14.28
2019-02-18T06:40:44.085Z,13.80
2019-02-18T06:41:49.268Z,13.43
2019-02-18T06:43:13.362Z,12.85
2019-02-18T06:44:48.749Z,12.68
2019-02-18T06:46:24.198Z,13.88
2019-02-18T06:47:40.649Z,13.83
2019-02-18T06:49:05.357Z,13.98
2019-02-18T06:50:22.313Z,13.45
2019-02-18T06:51:38.708Z,12.58
2019-02-18T06:52:55.085Z,13.25
2019-02-18T06:54:11.633Z,12.28
2019-02-18T06:55:28.505Z,11.80
2019-02-18T06:57:05.677Z,11.78
2019-02-18T06:58:48.825Z,11.38
2019-02-18T07:00:31.909Z,11.53
2019-02-18T07:02:01.989Z,11.25
2019-02-18T07:03:37.495Z,11.15
2019-02-18T07:05:19.052Z,11.38
2019-02-18T07:06:54.366Z,10.58
2019-02-18T07:08:29.800Z,12.58
2019-02-18T07:10:05.124Z,11.57
2019-02-18T07:11:28.677Z,11.60
2019-02-18T07:12:50.782Z,11.15
2019-02-18T07:14:07.303Z,10.65
2019-02-18T07:15:23.830Z,11.70
2019-02-18T07:16:40.222Z,10.35
2019-02-18T07:17:56.768Z,10.80
2019-02-18T07:19:13.293Z,11.38
2019-02-18T07:20:30.265Z,10.63
2019-02-18T07:21:47.329Z,11.40
2019-02-18T07:23:04.005Z,11.83
2019-02-18T07:24:20.529Z,11.20
2019-02-18T07:25:37.226Z,11.35
2019-02-18T07:26:53.711Z,11.35
2019-02-18T07:28:10.164Z,12.82
2019-02-18T07:29:26.892Z,11.05
2019-02-18T07:30:43.729Z,10.60
2019-02-18T07:32:00.364Z,11.55
2019-02-18T07:33:16.745Z,11.18
2019-02-18T07:34:33.621Z,16.75
2019-02-18T07:35:50.950Z,13.83
2019-02-18T07:37:07.237Z,13.20
2019-02-18T07:38:23.801Z,11.00
2019-02-18T07:39:41.056Z,11.22
2019-02-18T07:40:57.856Z,12.80
2019-02-18T07:42:14.589Z,12.45
2019-02-18T07:43:31.325Z,11.97
2019-02-18T07:44:47.868Z,12.47
2019-02-18T07:46:04.486Z,12.00
2019-02-18T07:47:21.659Z,12.10
2019-02-18T07:48:38.355Z,12.78
2019-02-18T07:49:54.833Z,11.63
2019-02-18T07:51:11.385Z,11.90
2019-02-18T07:52:28.138Z,11.75
2019-02-18T07:53:44.649Z,11.60
2019-02-18T07:55:01.078Z,12.28
2019-02-18T07:56:18.157Z,11.70
2019-02-18T07:57:34.556Z,11.25
2019-02-18T07:58:51.117Z,11.68
2019-02-18T08:00:07.638Z,11.75
2019-02-18T08:01:24.553Z,11.25
2019-02-18T08:02:41.079Z,11.97
2019-02-18T08:03:57.789Z,11.75
2019-02-18T08:05:14.116Z,11.10
2019-02-18T08:06:30.540Z,12.10
2019-02-18T08:07:46.835Z,11.22
2019-02-18T08:09:04.636Z,11.60
2019-02-18T08:10:21.305Z,10.55
2019-02-18T08:11:36.516Z,11.08
2019-02-18T08:13:00.685Z,11.57
2019-02-18T08:14:17.869Z,10.13
2019-02-18T08:15:34.444Z,10.68
2019-02-18T08:16:51.032Z,10.80
2019-02-18T08:18:07.534Z,10.78
2019-02-18T08:19:24.420Z,11.10
2019-02-18T08:20:42.081Z,12.05
2019-02-18T08:22:00.339Z,12.18
2019-02-18T08:23:16.821Z,11.05
2019-02-18T08:24:33.450Z,11.25
2019-02-18T08:25:49.765Z,10.55
2019-02-18T08:27:06.371Z,11.28
2019-02-18T08:28:22.851Z,12.05
2019-02-18T08:29:39.437Z,11.30
2019-02-18T08:30:55.881Z,9.98
2019-02-18T08:32:11.173Z,10.13
2019-02-18T08:33:35.257Z,10.35
2019-02-18T08:34:51.765Z,10.58
2019-02-18T08:36:08.401Z,9.10
2019-02-18T08:37:24.681Z,9.90
2019-02-18T08:38:41.352Z,10.30
2019-02-18T08:39:56.614Z,10.48
2019-02-18T08:41:20.700Z,11.28
2019-02-18T08:42:37.111Z,9.95
2019-02-18T08:43:53.740Z,10.32
2019-02-18T08:45:10.479Z,10.28
2019-02-18T08:46:27.567Z,9.93
2019-02-18T08:47:44.329Z,11.40
2019-02-18T08:49:01.637Z,11.33
2019-02-18T08:50:19.427Z,10.68
2019-02-18T08:51:35.936Z,11.10
2019-02-18T08:52:53.170Z,11.43
2019-02-18T08:54:09.472Z,11.03
2019-02-18T08:55:26.457Z,10.82
2019-02-18T08:56:42.828Z,10.60
2019-02-18T08:58:00.012Z,10.48
2019-02-18T08:59:17.112Z,11.70
2019-02-18T09:00:33.829Z,10.75
2019-02-18T09:01:50.479Z,10.20
2019-02-18T09:03:06.828Z,9.35
2019-02-18T09:04:23.505Z,9.98
2019-02-18T09:05:40.682Z,10.88
2019-02-18T09:06:57.919Z,9.18
2019-02-18T09:08:14.457Z,10.45
2019-02-18T09:09:30.838Z,9.60
2019-02-18T09:10:46.089Z,9.95
2019-02-18T09:12:02.458Z,9.70
2019-02-18T09:13:19.724Z,11.00
2019-02-18T09:14:35.965Z,9.70
2019-02-18T09:15:59.683Z,10.55
2019-02-18T09:17:11.224Z,10.78
2019-02-18T09:18:28.674Z,11.20
2019-02-18T09:19:45.133Z,10.53
2019-02-18T09:21:01.546Z,10.82
2019-02-18T09:22:36.829Z,10.60
2019-02-18T09:24:01.416Z,10.20
2019-02-18T09:25:23.828Z,10.35
2019-02-18T09:26:40.504Z,11.12
2019-02-18T09:27:58.127Z,11.65
2019-02-18T09:29:15.393Z,10.25
2019-02-18T09:30:33.985Z,10.32
2019-02-18T09:31:55.381Z,10.63
2019-02-18T09:33:12.619Z,10.30
2019-02-18T09:34:29.224Z,10.13
2019-02-18T09:35:45.756Z,9.45
2019-02-18T09:37:02.321Z,10.28
2019-02-18T09:38:24.826Z,9.90
2019-02-18T09:39:37.632Z,10.25
2019-02-18T09:40:54.003Z,10.10
2019-02-18T09:42:10.829Z,10.98
2019-02-18T09:43:27.425Z,10.30
2019-02-18T09:44:44.027Z,10.10
2019-02-18T09:46:01.326Z,10.63
2019-02-18T09:47:17.733Z,9.60
2019-02-18T09:48:35.049Z,9.38
2019-02-18T09:49:51.503Z,10.23
2019-02-18T09:51:09.200Z,10.50
2019-02-18T09:52:25.548Z,9.85
2019-02-18T09:53:42.371Z,10.10
2019-02-18T09:54:58.901Z,8.90
2019-02-18T09:56:16.094Z,9.93
2019-02-18T09:57:33.336Z,10.68
2019-02-18T09:58:50.299Z,9.23
2019-02-18T10:00:06.849Z,10.28
2019-02-18T10:01:24.071Z,9.33
2019-02-18T10:02:40.585Z,9.45
2019-02-18T10:03:57.587Z,9.08
2019-02-18T10:05:14.129Z,9.23
2019-02-18T10:06:30.951Z,9.20
2019-02-18T10:07:47.766Z,9.05
2019-02-18T10:09:04.547Z,10.25
2019-02-18T10:10:22.597Z,10.53
2019-02-18T10:11:39.158Z,8.78
2019-02-18T10:12:55.864Z,8.65
2019-02-18T10:14:13.144Z,8.65
2019-02-18T10:15:29.735Z,8.95
2019-02-18T10:16:47.394Z,8.93
2019-02-18T10:18:03.788Z,9.33
2019-02-18T10:19:20.085Z,9.10
2019-02-18T10:20:36.642Z,9.25
2019-02-18T10:21:53.230Z,8.83
2019-02-18T10:23:10.332Z,8.60
2019-02-18T10:24:26.763Z,8.50
2019-02-18T10:25:43.190Z,10.40
2019-02-18T10:27:03.470Z,9.03
2019-02-18T10:28:20.409Z,9.40
2019-02-18T10:29:36.817Z,9.20
2019-02-18T10:30:53.996Z,9.60
2019-02-18T10:32:11.041Z,9.25
2019-02-18T10:33:27.704Z,10.10
2019-02-18T10:34:44.941Z,9.28
2019-02-18T10:36:02.083Z,9.28
2019-02-18T10:37:18.926Z,9.55
2019-02-18T10:38:35.303Z,10.00
2019-02-18T10:39:51.670Z,10.23
2019-02-18T10:41:08.000Z,10.48
2019-02-18T10:42:24.489Z,10.63
2019-02-18T10:43:41.669Z,10.00
2019-02-18T10:44:58.248Z,10.70
2019-02-18T10:46:15.648Z,10.10
2019-02-18T10:47:33.005Z,10.08
2019-02-18T10:48:50.311Z,9.30
2019-02-18T10:50:07.365Z,9.98
2019-02-18T10:51:23.809Z,10.35
2019-02-18T10:52:40.522Z,9.90
2019-02-18T10:53:57.055Z,11.05
2019-02-18T10:55:12.830Z,10.50
2019-02-18T10:56:29.549Z,10.28
2019-02-18T10:57:47.008Z,9.78
2019-02-18T10:59:03.665Z,10.30
2019-02-18T11:00:20.136Z,10.13
2019-02-18T11:01:36.832Z,9.85
2019-02-18T11:02:53.137Z,9.88
2019-02-18T11:04:09.952Z,9.30
2019-02-18T11:05:27.485Z,9.75
2019-02-18T11:06:44.124Z,8.85
2019-02-18T11:08:00.869Z,9.40
2019-02-18T11:09:16.074Z,9.90
2019-02-18T11:10:40.191Z,9.10
2019-02-18T11:11:56.752Z,10.08
2019-02-18T11:13:13.326Z,9.48
2019-02-18T11:14:30.570Z,8.85
2019-02-18T11:15:47.193Z,9.93
2019-02-18T11:17:03.698Z,8.53
2019-02-18T11:18:20.154Z,9.13
2019-02-18T11:19:36.526Z,9.35
2019-02-18T11:20:53.833Z,9.73
2019-02-18T11:22:10.430Z,8.63
2019-02-18T11:23:26.949Z,10.10
2019-02-18T11:24:43.281Z,9.63
2019-02-18T11:25:59.776Z,9.88
2019-02-18T11:27:16.368Z,8.80
2019-02-18T11:28:33.606Z,9.68
2019-02-18T11:29:50.020Z,8.70
2019-02-18T11:31:06.836Z,9.53
2019-02-18T11:32:23.453Z,8.40
2019-02-18T11:33:40.161Z,9.38
2019-02-18T11:34:56.951Z,8.70
2019-02-18T11:36:13.461Z,10.05
2019-02-18T11:37:29.797Z,8.98
2019-02-18T11:38:46.153Z,9.63
2019-02-18T11:40:02.737Z,8.20
2019-02-18T11:41:27.028Z,9.28
2019-02-18T11:42:37.842Z,8.10
2019-02-18T11:43:54.149Z,8.40
2019-02-18T11:45:10.404Z,8.80
2019-02-18T11:46:27.933Z,8.15
2019-02-18T11:47:44.693Z,8.50
2019-02-18T11:49:01.088Z,7.78
2019-02-18T11:50:17.809Z,9.03
2019-02-18T11:51:34.485Z,8.65
2019-02-18T11:52:51.730Z,9.45
2019-02-18T11:54:08.473Z,8.30
2019-02-18T11:55:25.173Z,8.85
2019-02-18T11:56:41.737Z,8.88
2019-02-18T11:57:58.108Z,9.00
2019-02-18T11:59:24.069Z,9.20
2019-02-18T12:00:33.493Z,8.20
2019-02-18T12:01:50.673Z,9.03
2019-02-18T12:03:12.339Z,9.10
2019-02-18T12:04:27.037Z,8.35
2019-02-18T12:05:44.001Z,8.25
2019-02-18T12:07:00.532Z,9.08
2019-02-18T12:08:17.729Z,8.20
2019-02-18T12:09:34.736Z,8.85
2019-02-18T12:10:51.117Z,9.23
2019-02-18T12:12:07.732Z,8.65
2019-02-18T12:13:25.200Z,8.30
2019-02-18T12:14:41.758Z,8.95
2019-02-18T12:15:58.891Z,8.85
2019-02-18T12:17:20.653Z,9.13
2019-02-18T12:18:34.280Z,8.35
2019-02-18T12:19:51.754Z,8.65
2019-02-18T12:21:08.650Z,9.13
2019-02-18T12:22:27.025Z,9.48
2019-02-18T12:23:43.387Z,8.50
2019-02-18T12:24:59.752Z,9.50
2019-02-18T12:26:16.370Z,8.58
2019-02-18T12:27:32.989Z,8.40
2019-02-18T12:28:50.220Z,9.15
2019-02-18T12:30:06.816Z,9.03
2019-02-18T12:31:23.458Z,9.18
2019-02-18T12:32:40.702Z,9.48
2019-02-18T12:33:57.229Z,9.70
2019-02-18T12:35:13.523Z,9.85
2019-02-18T12:36:30.041Z,9.18
2019-02-18T12:37:54.672Z,9.10
2019-02-18T12:39:29.999Z,9.85
2019-02-18T12:40:54.098Z,9.70
2019-02-18T12:42:10.637Z,9.30
2019-02-18T12:43:15.655Z,8.78
2019-02-18T12:44:20.715Z,9.30
2019-02-18T12:45:26.972Z,9.35
2019-02-18T12:46:32.169Z,10.08
2019-02-18T12:47:38.282Z,10.68
2019-02-18T12:48:43.443Z,10.75
2019-02-18T12:49:50.923Z,10.45
2019-02-18T12:50:55.237Z,9.83
2019-02-18T12:52:00.458Z,11.28
2019-02-18T12:53:05.746Z,9.43
2019-02-18T12:54:10.951Z,9.18
2019-02-18T12:55:16.222Z,10.93
2019-02-18T12:56:21.488Z,11.63
2019-02-18T12:57:26.816Z,10.45
2019-02-18T12:58:32.247Z,10.40
2019-02-18T12:59:37.418Z,10.98
2019-02-18T13:00:42.544Z,10.23
2019-02-18T13:01:47.607Z,10.55
2019-02-18T13:02:52.793Z,10.63
2019-02-18T13:03:57.971Z,10.20
2019-02-18T13:05:03.604Z,11.03
2019-02-18T13:06:09.057Z,11.05
2019-02-18T13:07:14.122Z,10.13
2019-02-18T13:08:19.317Z,10.40
2019-02-18T13:09:24.427Z,10.78
2019-02-18T13:10:34.714Z,10.70
2019-02-18T13:11:36.227Z,10.32
2019-02-18T13:12:41.423Z,10.18
2019-02-18T13:13:46.547Z,10.95
2019-02-18T13:14:51.953Z,10.05
2019-02-18T13:15:57.567Z,11.22
2019-02-18T13:17:02.998Z,10.65
2019-02-18T13:18:08.309Z,11.05
2019-02-18T13:19:14.090Z,10.50
2019-02-18T13:20:19.425Z,10.25
2019-02-18T13:21:24.727Z,10.25
2019-02-18T13:22:29.831Z,9.50
2019-02-18T13:23:35.088Z,10.43
2019-02-18T13:24:40.214Z,9.70
2019-02-18T13:25:47.560Z,10.25
2019-02-18T13:26:52.206Z,10.05
2019-02-18T13:27:57.318Z,10.15
2019-02-18T13:29:02.441Z,9.30
2019-02-18T13:30:12.154Z,9.23
2019-02-18T13:31:17.424Z,9.35
2019-02-18T13:32:22.510Z,8.85
2019-02-18T13:33:27.631Z,9.23
2019-02-18T13:34:32.676Z,9.55
2019-02-18T13:35:38.286Z,9.08
2019-02-18T13:36:43.861Z,9.98
2019-02-18T13:37:49.011Z,9.45
2019-02-18T13:38:54.200Z,9.53
2019-02-18T13:39:59.317Z,8.23
2019-02-18T13:41:04.459Z,8.50
2019-02-18T13:42:09.570Z,8.95
2019-02-18T13:43:14.688Z,8.38
2019-02-18T13:44:19.707Z,8.95
2019-02-18T13:45:25.064Z,8.90
2019-02-18T13:46:30.109Z,8.68
2019-02-18T13:47:35.261Z,8.60
2019-02-18T13:48:40.328Z,8.90
2019-02-18T13:49:45.533Z,9.93
2019-02-18T13:50:50.648Z,10.15
2019-02-18T13:51:56.761Z,9.13
2019-02-18T13:53:03.186Z,9.10
2019-02-18T13:54:08.314Z,8.10
2019-02-18T13:55:13.384Z,9.00
2019-02-18T13:56:18.874Z,9.50
2019-02-18T13:57:24.213Z,9.85
2019-02-18T13:58:29.422Z,9.00
2019-02-18T13:59:34.548Z,9.40
2019-02-18T14:00:39.665Z,7.45
2019-02-18T14:01:44.702Z,8.40
2019-02-18T14:02:51.111Z,7.28
2019-02-18T14:03:56.352Z,9.78
2019-02-18T14:05:01.451Z,8.40
2019-02-18T14:06:06.601Z,8.70
2019-02-18T14:07:11.709Z,8.88
2019-02-18T14:08:16.750Z,8.33
2019-02-18T14:09:22.952Z,9.80
2019-02-18T14:10:28.277Z,9.18
2019-02-18T14:11:33.401Z,9.73
2019-02-18T14:12:38.535Z,10.88
2019-02-18T14:13:43.652Z,10.53
2019-02-18T14:14:49.063Z,8.70
2019-02-18T14:15:54.181Z,9.40
2019-02-18T14:16:59.597Z,9.28
2019-02-18T14:18:05.185Z,8.70
2019-02-18T14:19:10.320Z,9.45
2019-02-18T14:20:15.571Z,8.70
2019-02-18T14:21:20.708Z,8.60
2019-02-18T14:22:25.805Z,9.33
2019-02-18T14:23:30.852Z,9.10
2019-02-18T14:24:35.988Z,9.53
2019-02-18T14:25:41.084Z,8.95
2019-02-18T14:26:46.212Z,9.53
2019-02-18T14:27:51.339Z,9.40
2019-02-18T14:28:56.379Z,8.40
2019-02-18T14:30:01.562Z,8.65
2019-02-18T14:31:06.923Z,9.03
2019-02-18T14:32:12.049Z,8.45
2019-02-18T14:33:17.191Z,7.55
2019-02-18T14:34:22.301Z,7.87
2019-02-18T14:35:27.466Z,6.97
2019-02-18T14:36:32.464Z,8.20
2019-02-18T14:37:38.050Z,7.35
2019-02-18T14:38:43.468Z,7.78
2019-02-18T14:39:48.611Z,7.65
2019-02-18T14:40:53.733Z,7.85
2019-02-18T14:41:58.957Z,8.58
2019-02-18T14:43:04.114Z,7.97
2019-02-18T14:44:09.289Z,8.28
2019-02-18T14:45:15.208Z,8.55
2019-02-18T14:46:20.395Z,7.78
2019-02-18T14:47:25.498Z,7.28
2019-02-18T14:48:30.671Z,7.70
2019-02-18T14:49:35.824Z,7.12
2019-02-18T14:50:40.993Z,8.08
2019-02-18T14:51:46.197Z,6.92
2019-02-18T14:52:51.542Z,7.70
2019-02-18T14:53:56.836Z,7.28
2019-02-18T14:55:01.967Z,7.00
2019-02-18T14:56:09.185Z,7.80
2019-02-18T14:57:14.355Z,8.30
2019-02-18T14:58:19.892Z,7.25
2019-02-18T14:59:25.256Z,7.15
2019-02-18T15:00:30.409Z,6.50
2019-02-18T15:01:36.085Z,6.58
2019-02-18T15:02:41.296Z,7.25
2019-02-18T15:03:46.399Z,7.10
2019-02-18T15:04:51.498Z,6.75
2019-02-18T15:05:56.654Z,6.55
2019-02-18T15:07:01.853Z,6.22
2019-02-18T15:08:06.973Z,6.37
2019-02-18T15:09:12.088Z,6.90
2019-02-18T15:10:17.347Z,6.75
2019-02-18T15:11:22.501Z,6.95